Dennison, MN

9:39 PM CST on December 27, 2014 (GMT -0600)
Stanton | Change Station
CLOSE
Current Station
Airport
Location: Stanton,
Elevation: 919 ft
Nearby Weather Stations

Elev 919 ft 44.47 °N, 93.01 °W | Updated 5 minutes ago

Clear
Clear
12 °F
Feels Like 2 °F
N
6
Wind Variable Wind from South

Today
High -- | Low -- °F
--% Chance of Precip.
Yesterday
High -- | Low -- °F
Precip. -- in
7:47 AM 4:39 PM
Waxing Crescent, 43% visible
Pressure 30.11 in
Visibility 10.0 miles
Clouds Clear
Windchill 2 °F
Dew Point 6 °F
Humidity 78%
Rainfall 0.00 in
Snow Depth Not available.
UV 0 out of 12
Pollen .10 out of 12
Air Quality Not available.
Flu Activity Not available.
METAR KSYN 280334Z AUTO 19005KT 10SM CLR M11/M14 A3011 RMK AO2 T11141145

More Conditions Fewer Conditions

Pressure 30.11 in
Visibility 10.0 miles
Clouds Clear
Windchill 2 °F
Dew Point 6 °F
Humidity 78%
Rainfall 0.00 in
Snow Depth Not available.
UV 0 out of 12
Pollen .10 out of 12
Air Quality Not available.
Flu Activity Not available.
METAR KSYN 280334Z AUTO 19005KT 10SM CLR M11/M14 A3011 RMK AO2 T11141145

More Conditions Fewer Conditions

10-Day Weather Forecast

Almanac

Astronomy

Dec. 27, 2014 Rise Set
Actual Time
Civil Twilight
Nautical Twilight
Astronomical Twilight
Moon
Length of Visible Light
Length of Day
Tomorrow will be .
, % of the Moon is Illuminated

Today's Extremes

State Highs State Lows

Community

WunderPhotos

Upload Photos

1,781,180 photos uploaded!

WunderBlogs® & News

Nearby

Air Quality

  Air Quality AQ Index Pollutant
Not available.

Snow Depth

Station Depth Elevation

Earthquake Activity

City Distance Mag. Time & Date
Minimum magnitude displayed is 2.5.

Coastal Water Temperatures

Place Temperature

Nearby Weather Stations